Portada
METAR-TAF:

METAR-TAF

Aeropuertos :

Aeropuerto Internacional de El Cairo

El Cairo, Egipto

latitud: 30-08N, longitud: 031-24E, altitud: 64 m

Observación

El informe se hizo hace 21 minutos, a las 01:00 UTC
Viento 7 kt del norte-noroeste
Temperatura 25°C
Humedad 83%
Presión 1013 hPa
Visibilidad: 4000 m
neblina

METAR: HECA 250100Z 34007KT 4000 BR NSC 25/22 Q1013 NOSIG

Hora: 03:21 (01:21 UTC)

Pronóstico

El informe se hizo hace 2 horas y 21 minutos, a las 23:00 UTC
Pronóstico válido del 25 a las 00 UTC al 26 a las 06 UTC
Viento 8 kt del norte-noreste
Visibilidad: 6000 m
Temporalmente
del 25 a las 01 UTC al 25 a las 07 UTC
Viento 3 kt con dirección variable
Evolucionando progresivamente
entre 25 y 00 UTC
Viento 10 kt del norte
Visibilidad 10 km o más
Escasas nubes a una altura de 2500 ft

TAF: HECA 242300Z 2500/2606 03008KT 6000 NSC TEMPO 2501/2507 VRB03KT 4000BR BECMG 25008/2510 35010KT 9999 FEW025

Observaciones y pronósticos meteorológicos de más de 4000 aeropuertos (mensajes METAR y TAF).

Los puntos amarillos y rojos representan las estaciones disponibles.

Ponga el ratón en el punto deseado para ver el nombre de la estación.

Haga clic para ver las observaciones y los pronósticos meteorológicos.

Para cambiar el mapa : haga clic en los botones verdes con una cruz de color negro para hacer un zoom, en el botón verde con un guión para alejar o en las flechas verdes para mapas adyacentes.


METAR-TAF: